createdAt,value
2022-10-02T00:00:59.374Z,1010.88
2022-10-02T00:01:59.426Z,1010.89
2022-10-02T00:02:59.372Z,1010.91
2022-10-02T00:03:59.431Z,1010.93
2022-10-02T00:04:59.363Z,1010.94
2022-10-02T00:05:59.375Z,1010.95
2022-10-02T00:06:59.365Z,1010.96
2022-10-02T00:07:59.360Z,1010.98
2022-10-02T00:08:59.354Z,1011.00
2022-10-02T00:09:59.356Z,1011.00
2022-10-02T00:10:59.365Z,1011.00
2022-10-02T00:11:59.349Z,1011.03
2022-10-02T00:12:59.349Z,1011.02
2022-10-02T00:13:59.349Z,1011.05
2022-10-02T00:14:59.349Z,1011.07
2022-10-02T00:15:59.418Z,1011.07
2022-10-02T00:16:59.469Z,1011.08
2022-10-02T00:17:59.346Z,1011.08
2022-10-02T00:18:59.332Z,1011.04
2022-10-02T00:19:59.343Z,1011.05
2022-10-02T00:20:59.344Z,1010.99
2022-10-02T00:21:59.331Z,1010.94
2022-10-02T00:22:59.322Z,1010.91
2022-10-02T00:23:59.326Z,1010.95
2022-10-02T00:24:59.314Z,1010.94
2022-10-02T00:25:59.318Z,1010.98
2022-10-02T00:26:59.332Z,1010.99
2022-10-02T00:27:59.387Z,1011.06
2022-10-02T00:28:59.309Z,1011.10
2022-10-02T00:29:59.324Z,1011.08
2022-10-02T00:30:59.302Z,1011.09
2022-10-02T00:31:59.464Z,1011.07
2022-10-02T00:32:59.298Z,1011.08
2022-10-02T00:33:59.294Z,1011.06
2022-10-02T00:34:59.298Z,1011.08
2022-10-02T00:35:59.292Z,1011.07
2022-10-02T00:36:59.290Z,1011.12
2022-10-02T00:37:59.287Z,1011.14
2022-10-02T00:38:59.282Z,1011.13
2022-10-02T00:39:59.283Z,1011.15
2022-10-02T00:40:59.284Z,1011.16
2022-10-02T00:41:59.282Z,1011.14
2022-10-02T00:42:59.308Z,1011.19
2022-10-02T00:43:59.282Z,1011.20
2022-10-02T00:44:59.276Z,1011.23
2022-10-02T00:45:59.322Z,1011.21
2022-10-02T00:46:59.274Z,1011.20
2022-10-02T00:47:59.266Z,1011.21
2022-10-02T00:48:59.270Z,1011.22
2022-10-02T00:49:59.267Z,1011.27
2022-10-02T00:50:59.253Z,1011.28
2022-10-02T00:51:59.262Z,1011.26
2022-10-02T00:52:59.263Z,1011.31
2022-10-02T00:53:59.248Z,1011.35
2022-10-02T00:54:59.252Z,1011.38
2022-10-02T00:55:59.246Z,1011.37
2022-10-02T00:56:59.247Z,1011.31
2022-10-02T00:57:59.240Z,1011.40
2022-10-02T00:58:59.266Z,1011.35
2022-10-02T00:59:59.240Z,1011.31
2022-10-02T01:00:59.305Z,1011.31
2022-10-02T01:01:59.291Z,1011.30
2022-10-02T01:02:59.233Z,1011.27
2022-10-02T01:03:59.237Z,1011.22
2022-10-02T01:04:59.226Z,1011.25
2022-10-02T01:05:59.218Z,1011.25
2022-10-02T01:06:59.235Z,1011.22
2022-10-02T01:07:59.225Z,1011.24
2022-10-02T01:08:59.214Z,1011.27
2022-10-02T01:09:59.215Z,1011.28
2022-10-02T01:10:59.227Z,1011.28
2022-10-02T01:11:59.224Z,1011.25
2022-10-02T01:12:59.208Z,1011.30
2022-10-02T01:13:59.209Z,1011.34
2022-10-02T01:14:59.219Z,1011.35
2022-10-02T01:15:59.252Z,1011.35
2022-10-02T01:16:59.251Z,1011.34
2022-10-02T01:17:59.203Z,1011.36
2022-10-02T01:18:59.193Z,1011.33
2022-10-02T01:19:59.188Z,1011.31
2022-10-02T01:20:59.193Z,1011.37
2022-10-02T01:21:59.195Z,1011.30
2022-10-02T01:22:59.185Z,1011.31
2022-10-02T01:23:59.178Z,1011.32
2022-10-02T01:24:59.177Z,1011.33
2022-10-02T01:25:59.181Z,1011.35
2022-10-02T01:26:59.182Z,1011.34
2022-10-02T01:27:59.250Z,1011.38
2022-10-02T01:28:59.176Z,1011.38
2022-10-02T01:29:59.180Z,1011.37
2022-10-02T01:30:59.194Z,1011.38
2022-10-02T01:31:59.204Z,1011.44
2022-10-02T01:32:59.168Z,1011.47
2022-10-02T01:33:59.174Z,1011.45
2022-10-02T01:34:59.158Z,1011.42
2022-10-02T01:35:59.158Z,1011.43
2022-10-02T01:36:59.155Z,1011.42
2022-10-02T01:37:59.155Z,1011.38
2022-10-02T01:38:59.156Z,1011.42
2022-10-02T01:39:59.145Z,1011.38
2022-10-02T01:40:59.139Z,1011.38
2022-10-02T01:41:59.145Z,1011.33
2022-10-02T01:42:59.136Z,1011.38
2022-10-02T01:43:59.238Z,1011.30
2022-10-02T01:44:59.128Z,1011.36
2022-10-02T01:45:59.204Z,1011.36
2022-10-02T01:46:59.155Z,1011.38
2022-10-02T01:47:59.124Z,1011.45
2022-10-02T01:48:59.126Z,1011.45
2022-10-02T01:49:59.120Z,1011.41
2022-10-02T01:50:59.122Z,1011.44
2022-10-02T01:51:59.110Z,1011.40
2022-10-02T01:52:59.116Z,1011.41
2022-10-02T01:53:59.111Z,1011.41
2022-10-02T01:54:59.127Z,1011.40
2022-10-02T01:55:59.107Z,1011.36
2022-10-02T01:56:59.107Z,1011.42
2022-10-02T01:57:59.105Z,1011.41
2022-10-02T01:58:59.103Z,1011.41
2022-10-02T01:59:59.107Z,1011.47
2022-10-02T02:00:59.165Z,1011.42
2022-10-02T02:01:59.177Z,1011.36
2022-10-02T02:02:59.109Z,1011.37
2022-10-02T02:03:59.089Z,1011.41
2022-10-02T02:04:59.095Z,1011.38
2022-10-02T02:05:59.096Z,1011.40
2022-10-02T02:06:59.073Z,1011.41
2022-10-02T02:07:59.073Z,1011.37
2022-10-02T02:09:01.870Z,1011.38
2022-10-02T02:09:59.075Z,1011.36
2022-10-02T02:10:59.076Z,1011.43
2022-10-02T02:11:59.076Z,1011.45
2022-10-02T02:12:59.057Z,1011.43
2022-10-02T02:13:59.071Z,1011.45
2022-10-02T02:14:59.061Z,1011.40
2022-10-02T02:15:59.101Z,1011.39
2022-10-02T02:16:59.088Z,1011.36
2022-10-02T02:17:59.064Z,1011.36
2022-10-02T02:18:59.091Z,1011.40
2022-10-02T02:19:59.055Z,1011.41
2022-10-02T02:20:59.044Z,1011.40
2022-10-02T02:21:59.051Z,1011.43
2022-10-02T02:22:59.037Z,1011.37
2022-10-02T02:23:59.035Z,1011.42
2022-10-02T02:24:59.035Z,1011.31
2022-10-02T02:25:59.042Z,1011.27
2022-10-02T02:26:59.032Z,1011.26
2022-10-02T02:27:59.071Z,1011.20
2022-10-02T02:28:59.033Z,1011.25
2022-10-02T02:29:59.019Z,1011.20
2022-10-02T02:30:59.026Z,1011.23
2022-10-02T02:31:59.067Z,1011.23
2022-10-02T02:32:59.021Z,1011.21
2022-10-02T02:33:59.020Z,1011.26
2022-10-02T02:34:59.031Z,1011.26
2022-10-02T02:35:59.014Z,1011.28
2022-10-02T02:36:59.012Z,1011.28
2022-10-02T02:37:59.017Z,1011.27
2022-10-02T02:38:59.000Z,1011.27
2022-10-02T02:39:59.002Z,1011.14
2022-10-02T02:40:59.011Z,1011.15
2022-10-02T02:41:58.992Z,1011.16
2022-10-02T02:42:58.992Z,1011.14
2022-10-02T02:43:59.004Z,1011.14
2022-10-02T02:44:58.985Z,1011.13
2022-10-02T02:45:59.033Z,1011.19
2022-10-02T02:46:58.994Z,1011.24
2022-10-02T02:47:58.987Z,1011.29
2022-10-02T02:48:58.989Z,1011.32
2022-10-02T02:49:58.971Z,1011.34
2022-10-02T02:50:58.993Z,1011.34
2022-10-02T02:51:58.983Z,1011.34
2022-10-02T02:52:58.965Z,1011.37
2022-10-02T02:53:58.966Z,1011.42
2022-10-02T02:54:58.969Z,1011.44
2022-10-02T02:55:58.965Z,1011.46
2022-10-02T02:56:58.961Z,1011.48
2022-10-02T02:57:58.961Z,1011.40
2022-10-02T02:58:58.965Z,1011.36
2022-10-02T02:59:58.959Z,1011.35
2022-10-02T03:00:59.023Z,1011.36
2022-10-02T03:01:58.974Z,1011.40
2022-10-02T03:02:58.946Z,1011.41
2022-10-02T03:03:58.950Z,1011.39
2022-10-02T03:04:58.944Z,1011.34
2022-10-02T03:05:58.943Z,1011.37
2022-10-02T03:06:58.954Z,1011.33
2022-10-02T03:07:58.940Z,1011.30
2022-10-02T03:08:58.935Z,1011.29
2022-10-02T03:09:58.932Z,1011.29
2022-10-02T03:10:58.926Z,1011.26
2022-10-02T03:11:58.933Z,1011.28
2022-10-02T03:12:58.918Z,1011.22
2022-10-02T03:13:58.922Z,1011.25
2022-10-02T03:14:58.933Z,1011.29
2022-10-02T03:15:59.016Z,1011.27
2022-10-02T03:16:58.905Z,1011.30
2022-10-02T03:17:58.907Z,1011.29
2022-10-02T03:18:58.903Z,1011.33
2022-10-02T03:19:58.913Z,1011.30
2022-10-02T03:20:58.912Z,1011.36
2022-10-02T03:21:58.904Z,1011.35
2022-10-02T03:22:58.910Z,1011.30
2022-10-02T03:23:58.891Z,1011.32
2022-10-02T03:24:58.887Z,1011.32
2022-10-02T03:25:58.897Z,1011.30
2022-10-02T03:26:58.894Z,1011.32
2022-10-02T03:27:58.926Z,1011.29
2022-10-02T03:28:58.923Z,1011.30
2022-10-02T03:29:58.883Z,1011.33
2022-10-02T03:30:58.883Z,1011.34
2022-10-02T03:31:58.888Z,1011.35
2022-10-02T03:32:58.872Z,1011.32
2022-10-02T03:33:58.876Z,1011.30
2022-10-02T03:34:58.871Z,1011.35
2022-10-02T03:35:59.929Z,1011.37
2022-10-02T03:36:58.862Z,1011.30
2022-10-02T03:37:58.869Z,1011.35
2022-10-02T03:39:23.082Z,1011.28
2022-10-02T03:39:58.861Z,1011.30
2022-10-02T03:40:58.858Z,1011.29
2022-10-02T03:41:58.846Z,1011.31
2022-10-02T03:42:58.856Z,1011.27
2022-10-02T03:43:58.842Z,1011.27
2022-10-02T03:44:58.856Z,1011.22
2022-10-02T03:45:58.882Z,1011.23
2022-10-02T03:46:58.944Z,1011.21
2022-10-02T03:47:58.834Z,1011.21
2022-10-02T03:48:58.831Z,1011.25
2022-10-02T03:49:58.832Z,1011.25
2022-10-02T03:50:58.832Z,1011.28
2022-10-02T03:51:58.837Z,1011.28
2022-10-02T03:52:58.833Z,1011.27
2022-10-02T03:53:58.828Z,1011.30
2022-10-02T03:54:58.838Z,1011.30
2022-10-02T03:55:58.824Z,1011.30
2022-10-02T03:56:58.810Z,1011.33
2022-10-02T03:57:58.823Z,1011.31
2022-10-02T03:58:58.818Z,1011.33
2022-10-02T03:59:58.802Z,1011.35
2022-10-02T04:00:58.803Z,1011.32
2022-10-02T04:01:58.835Z,1011.31
2022-10-02T04:02:58.803Z,1011.30
2022-10-02T04:03:58.889Z,1011.33
2022-10-02T04:04:58.801Z,1011.29
2022-10-02T04:05:58.801Z,1011.30
2022-10-02T04:06:58.801Z,1011.22
2022-10-02T04:07:58.786Z,1011.24
2022-10-02T04:08:58.791Z,1011.29
2022-10-02T04:09:58.798Z,1011.32
2022-10-02T04:10:58.799Z,1011.29
2022-10-02T04:11:58.793Z,1011.35
2022-10-02T04:12:58.786Z,1011.39
2022-10-02T04:13:58.785Z,1011.40
2022-10-02T04:14:58.776Z,1011.47
2022-10-02T04:15:58.782Z,1011.42
2022-10-02T04:16:58.764Z,1011.47
2022-10-02T04:17:59.205Z,1011.49
2022-10-02T04:18:58.763Z,1011.43
2022-10-02T04:19:58.756Z,1011.44
2022-10-02T04:20:58.757Z,1011.46
2022-10-02T04:21:58.757Z,1011.42
2022-10-02T04:22:58.756Z,1011.47
2022-10-02T04:23:58.758Z,1011.46
2022-10-02T04:24:58.749Z,1011.46
2022-10-02T04:25:58.741Z,1011.44
2022-10-02T04:26:58.769Z,1011.42
2022-10-02T04:27:58.806Z,1011.47
2022-10-02T04:28:58.736Z,1011.47
2022-10-02T04:29:58.748Z,1011.45
2022-10-02T04:30:58.737Z,1011.48
2022-10-02T04:31:58.838Z,1011.48
2022-10-02T04:32:58.724Z,1011.44
2022-10-02T04:33:58.733Z,1011.45
2022-10-02T04:34:58.741Z,1011.47
2022-10-02T04:35:58.739Z,1011.47
2022-10-02T04:36:58.723Z,1011.47
2022-10-02T04:37:58.720Z,1011.49
2022-10-02T04:38:58.708Z,1011.51
2022-10-02T04:39:58.717Z,1011.55
2022-10-02T04:40:58.710Z,1011.57
2022-10-02T04:41:58.707Z,1011.60
2022-10-02T04:42:58.718Z,1011.63
2022-10-02T04:43:58.705Z,1011.63
2022-10-02T04:44:58.703Z,1011.59
2022-10-02T04:45:58.770Z,1011.60
2022-10-02T04:46:58.709Z,1011.60
2022-10-02T04:47:58.695Z,1011.58
2022-10-02T04:48:58.692Z,1011.63
2022-10-02T04:49:58.686Z,1011.61
2022-10-02T04:50:58.681Z,1011.60
2022-10-02T04:51:58.699Z,1011.59
2022-10-02T04:52:58.682Z,1011.61
2022-10-02T04:53:58.681Z,1011.57
2022-10-02T04:54:58.676Z,1011.55
2022-10-02T04:55:58.683Z,1011.57
2022-10-02T04:56:58.670Z,1011.58
2022-10-02T04:57:58.672Z,1011.57
2022-10-02T04:58:58.684Z,1011.54
2022-10-02T04:59:58.677Z,1011.50
2022-10-02T05:00:58.736Z,1011.52
2022-10-02T05:01:58.737Z,1011.53
2022-10-02T05:02:58.666Z,1011.45
2022-10-02T05:04:03.184Z,1011.51
2022-10-02T05:04:58.646Z,1011.47
2022-10-02T05:05:58.652Z,1011.51
2022-10-02T05:06:58.648Z,1011.45
2022-10-02T05:07:58.653Z,1011.47
2022-10-02T05:08:58.636Z,1011.48
2022-10-02T05:09:58.648Z,1011.51
2022-10-02T05:10:58.631Z,1011.52
2022-10-02T05:11:58.635Z,1011.52
2022-10-02T05:12:58.634Z,1011.50
2022-10-02T05:13:58.637Z,1011.56
2022-10-02T05:14:58.648Z,1011.53
2022-10-02T05:15:58.686Z,1011.52
2022-10-02T05:16:58.620Z,1011.53
2022-10-02T05:17:58.622Z,1011.56
2022-10-02T05:18:58.620Z,1011.58
2022-10-02T05:19:58.619Z,1011.59
2022-10-02T05:20:58.619Z,1011.62
2022-10-02T05:21:58.605Z,1011.59
2022-10-02T05:22:58.601Z,1011.62
2022-10-02T05:23:58.611Z,1011.65
2022-10-02T05:24:58.593Z,1011.69
2022-10-02T05:25:58.600Z,1011.64
2022-10-02T05:26:58.603Z,1011.65
2022-10-02T05:27:58.763Z,1011.61
2022-10-02T05:28:58.590Z,1011.67
2022-10-02T05:29:58.587Z,1011.63
2022-10-02T05:30:58.635Z,1011.62
2022-10-02T05:31:58.595Z,1011.66
2022-10-02T05:32:58.595Z,1011.69
2022-10-02T05:33:58.578Z,1011.67
2022-10-02T05:34:58.576Z,1011.70
2022-10-02T05:35:58.570Z,1011.72
2022-10-02T05:36:58.584Z,1011.75
2022-10-02T05:37:58.574Z,1011.72
2022-10-02T05:38:58.575Z,1011.71
2022-10-02T05:39:58.576Z,1011.76
2022-10-02T05:40:58.565Z,1011.78
2022-10-02T05:41:58.574Z,1011.78
2022-10-02T05:42:58.553Z,1011.81
2022-10-02T05:43:58.564Z,1011.80
2022-10-02T05:44:58.552Z,1011.77
2022-10-02T05:45:58.550Z,1011.84
2022-10-02T05:46:58.657Z,1011.79
2022-10-02T05:47:58.551Z,1011.80
2022-10-02T05:48:58.543Z,1011.85
2022-10-02T05:49:58.549Z,1011.78
2022-10-02T05:50:58.538Z,1011.78
2022-10-02T05:51:58.533Z,1011.77
2022-10-02T05:52:58.535Z,1011.74
2022-10-02T05:53:58.531Z,1011.75
2022-10-02T05:54:58.541Z,1011.77
2022-10-02T05:55:58.524Z,1011.75
2022-10-02T05:56:58.528Z,1011.77
2022-10-02T05:57:58.526Z,1011.78
2022-10-02T05:58:58.529Z,1011.81
2022-10-02T05:59:58.524Z,1011.75
2022-10-02T06:00:58.603Z,1011.80
2022-10-02T06:01:58.546Z,1011.80
2022-10-02T06:02:58.529Z,1011.80
2022-10-02T06:03:58.514Z,1011.82
2022-10-02T06:04:58.496Z,1011.82
2022-10-02T06:05:58.507Z,1011.84
2022-10-02T06:06:58.504Z,1011.87
2022-10-02T06:07:58.496Z,1011.90
2022-10-02T06:08:58.522Z,1011.95
2022-10-02T06:09:58.493Z,1011.92
2022-10-02T06:10:58.502Z,1011.94
2022-10-02T06:11:58.501Z,1011.95
2022-10-02T06:12:58.485Z,1011.93
2022-10-02T06:13:58.487Z,1011.97
2022-10-02T06:14:58.486Z,1011.91
2022-10-02T06:15:58.543Z,1011.97
2022-10-02T06:16:58.481Z,1011.95
2022-10-02T06:17:58.472Z,1012.00
2022-10-02T06:18:58.586Z,1012.05
2022-10-02T06:20:03.032Z,1012.04
2022-10-02T06:20:58.473Z,1012.02
2022-10-02T06:21:58.481Z,1012.02
2022-10-02T06:22:58.469Z,1012.03
2022-10-02T06:23:58.455Z,1012.07
2022-10-02T06:24:58.458Z,1012.06
2022-10-02T06:25:58.453Z,1012.07
2022-10-02T06:26:58.453Z,1012.01
2022-10-02T06:27:58.512Z,1012.10
2022-10-02T06:28:58.448Z,1012.10
2022-10-02T06:29:58.445Z,1012.15
2022-10-02T06:30:58.438Z,1012.17
2022-10-02T06:31:58.516Z,1012.20
2022-10-02T06:32:58.437Z,1012.19
2022-10-02T06:33:58.426Z,1012.25
2022-10-02T06:34:58.452Z,1012.27
2022-10-02T06:35:58.433Z,1012.27
2022-10-02T06:36:58.422Z,1012.27
2022-10-02T06:37:58.428Z,1012.30
2022-10-02T06:38:58.433Z,1012.29
2022-10-02T06:39:58.424Z,1012.30
2022-10-02T06:40:58.417Z,1012.29
2022-10-02T06:41:58.422Z,1012.29
2022-10-02T06:42:58.423Z,1012.29
2022-10-02T06:43:58.412Z,1012.28
2022-10-02T06:44:58.402Z,1012.22
2022-10-02T06:45:58.509Z,1012.29
2022-10-02T06:46:58.410Z,1012.28
2022-10-02T06:47:58.394Z,1012.29
2022-10-02T06:48:58.399Z,1012.34
2022-10-02T06:49:58.397Z,1012.28
2022-10-02T06:50:58.406Z,1012.36
2022-10-02T06:51:58.387Z,1012.32
2022-10-02T06:52:58.386Z,1012.34
2022-10-02T06:53:58.387Z,1012.34
2022-10-02T06:54:58.396Z,1012.34
2022-10-02T06:55:58.387Z,1012.34
2022-10-02T06:56:58.371Z,1012.36
2022-10-02T06:57:58.376Z,1012.37
2022-10-02T06:58:58.375Z,1012.37
2022-10-02T06:59:58.378Z,1012.44
2022-10-02T07:00:58.461Z,1012.42
2022-10-02T07:01:58.395Z,1012.42
2022-10-02T07:02:58.364Z,1012.38
2022-10-02T07:03:58.365Z,1012.37
2022-10-02T07:04:58.375Z,1012.34
2022-10-02T07:05:58.393Z,1012.37
2022-10-02T07:06:58.368Z,1012.33
2022-10-02T07:07:58.346Z,1012.33
2022-10-02T07:08:58.350Z,1012.36
2022-10-02T07:09:58.342Z,1012.38
2022-10-02T07:10:58.345Z,1012.36
2022-10-02T07:11:58.344Z,1012.38
2022-10-02T07:12:58.353Z,1012.40
2022-10-02T07:13:58.336Z,1012.42
2022-10-02T07:14:58.344Z,1012.48
2022-10-02T07:15:58.385Z,1012.43
2022-10-02T07:16:58.349Z,1012.47
2022-10-02T07:17:58.335Z,1012.46
2022-10-02T07:18:58.328Z,1012.54
2022-10-02T07:19:58.328Z,1012.55
2022-10-02T07:20:58.326Z,1012.54
2022-10-02T07:21:58.326Z,1012.51
2022-10-02T07:22:58.347Z,1012.47
2022-10-02T07:24:02.229Z,1012.47
2022-10-02T07:24:58.316Z,1012.45
2022-10-02T07:25:58.324Z,1012.46
2022-10-02T07:26:58.318Z,1012.46
2022-10-02T07:27:58.384Z,1012.47
2022-10-02T07:28:58.297Z,1012.50
2022-10-02T07:29:58.302Z,1012.55
2022-10-02T07:30:58.296Z,1012.56
2022-10-02T07:31:58.380Z,1012.55
2022-10-02T07:32:58.313Z,1012.59
2022-10-02T07:33:58.291Z,1012.57
2022-10-02T07:34:58.290Z,1012.61
2022-10-02T07:35:58.285Z,1012.59
2022-10-02T07:36:58.279Z,1012.55
2022-10-02T07:37:58.276Z,1012.58
2022-10-02T07:38:58.402Z,1012.53
2022-10-02T07:39:58.269Z,1012.58
2022-10-02T07:41:00.117Z,1012.61
2022-10-02T07:41:58.270Z,1012.57
2022-10-02T07:42:58.265Z,1012.62
2022-10-02T07:43:58.280Z,1012.60
2022-10-02T07:44:58.275Z,1012.63
2022-10-02T07:45:58.343Z,1012.63
2022-10-02T07:46:58.265Z,1012.68
2022-10-02T07:47:58.265Z,1012.74
2022-10-02T07:48:58.279Z,1012.73
2022-10-02T07:49:58.257Z,1012.73
2022-10-02T07:50:58.253Z,1012.75
2022-10-02T07:51:58.246Z,1012.81
2022-10-02T07:52:58.249Z,1012.79
2022-10-02T07:53:58.243Z,1012.77
2022-10-02T07:54:58.255Z,1012.81
2022-10-02T07:55:58.245Z,1012.80
2022-10-02T07:56:58.238Z,1012.79
2022-10-02T07:57:58.235Z,1012.81
2022-10-02T07:58:58.234Z,1012.77
2022-10-02T07:59:58.222Z,1012.79
2022-10-02T08:00:58.243Z,1012.79
2022-10-02T08:01:58.278Z,1012.77
2022-10-02T08:02:58.316Z,1012.83
2022-10-02T08:03:58.234Z,1012.82
2022-10-02T08:04:58.225Z,1012.86
2022-10-02T08:05:58.216Z,1012.84
2022-10-02T08:06:58.217Z,1012.85
2022-10-02T08:07:58.209Z,1012.90
2022-10-02T08:08:58.219Z,1012.87
2022-10-02T08:09:58.202Z,1012.88
2022-10-02T08:10:58.222Z,1012.87
2022-10-02T08:11:58.204Z,1012.88
2022-10-02T08:12:58.193Z,1012.88
2022-10-02T08:13:58.197Z,1012.95
2022-10-02T08:14:58.201Z,1012.90
2022-10-02T08:15:58.311Z,1012.90
2022-10-02T08:16:58.190Z,1012.88
2022-10-02T08:18:10.788Z,1012.87
2022-10-02T08:18:58.187Z,1012.88
2022-10-02T08:19:58.195Z,1012.89
2022-10-02T08:20:58.177Z,1012.91
2022-10-02T08:21:58.183Z,1012.89
2022-10-02T08:22:58.175Z,1012.92
2022-10-02T08:23:58.183Z,1012.89
2022-10-02T08:24:58.168Z,1012.89
2022-10-02T08:25:58.173Z,1012.93
2022-10-02T08:26:58.206Z,1012.92
2022-10-02T08:27:58.233Z,1012.96
2022-10-02T08:28:58.168Z,1012.95
2022-10-02T08:29:58.169Z,1012.97
2022-10-02T08:30:58.173Z,1012.95
2022-10-02T08:31:58.249Z,1012.91
2022-10-02T08:32:58.184Z,1012.91
2022-10-02T08:33:58.161Z,1012.93
2022-10-02T08:34:58.156Z,1012.96
2022-10-02T08:35:58.159Z,1012.99
2022-10-02T08:36:58.155Z,1012.96
2022-10-02T08:37:58.155Z,1012.97
2022-10-02T08:38:58.162Z,1012.96
2022-10-02T08:39:58.156Z,1012.98
2022-10-02T08:40:58.147Z,1012.98
2022-10-02T08:41:58.153Z,1013.01
2022-10-02T08:42:58.171Z,1013.02
2022-10-02T08:43:58.156Z,1012.94
2022-10-02T08:44:58.168Z,1012.97
2022-10-02T08:45:58.204Z,1012.96
2022-10-02T08:46:58.141Z,1012.96
2022-10-02T08:47:58.132Z,1012.99
2022-10-02T08:48:58.132Z,1012.99
2022-10-02T08:49:58.141Z,1012.97
2022-10-02T08:50:58.138Z,1012.99
2022-10-02T08:51:58.147Z,1013.02
2022-10-02T08:52:58.131Z,1012.97
2022-10-02T08:53:58.136Z,1013.02
2022-10-02T08:54:58.142Z,1013.00
2022-10-02T08:55:58.136Z,1013.02
2022-10-02T08:56:58.146Z,1013.02
2022-10-02T08:57:58.119Z,1013.06
2022-10-02T08:58:58.146Z,1013.05
2022-10-02T08:59:58.133Z,1013.05
2022-10-02T09:00:58.148Z,1013.05
2022-10-02T09:02:00.066Z,1013.10
2022-10-02T09:02:58.128Z,1013.10
2022-10-02T09:03:58.118Z,1013.14
2022-10-02T09:04:58.119Z,1013.10
2022-10-02T09:05:58.122Z,1013.08
2022-10-02T09:06:58.130Z,1013.09
2022-10-02T09:07:58.124Z,1013.15
2022-10-02T09:08:58.129Z,1013.19
2022-10-02T09:09:58.122Z,1013.18
2022-10-02T09:10:58.106Z,1013.14
2022-10-02T09:11:58.111Z,1013.21
2022-10-02T09:12:58.111Z,1013.23
2022-10-02T09:13:58.096Z,1013.21
2022-10-02T09:14:59.060Z,1013.21
2022-10-02T09:15:58.153Z,1013.28
2022-10-02T09:16:58.101Z,1013.31
2022-10-02T09:17:58.099Z,1013.30
2022-10-02T09:18:58.082Z,1013.27
2022-10-02T09:19:58.082Z,1013.23
2022-10-02T09:20:58.074Z,1013.21
2022-10-02T09:21:58.086Z,1013.19
2022-10-02T09:22:58.079Z,1013.17
2022-10-02T09:23:58.072Z,1013.20
2022-10-02T09:24:58.074Z,1013.25
2022-10-02T09:25:58.060Z,1013.31
2022-10-02T09:26:58.063Z,1013.32
2022-10-02T09:27:58.119Z,1013.30
2022-10-02T09:28:58.077Z,1013.29
2022-10-02T09:29:58.050Z,1013.26
2022-10-02T09:30:58.074Z,1013.26
2022-10-02T09:31:58.089Z,1013.21
2022-10-02T09:32:58.095Z,1013.22
2022-10-02T09:33:58.036Z,1013.21
2022-10-02T09:34:58.032Z,1013.22
2022-10-02T09:35:58.024Z,1013.23
2022-10-02T09:36:58.029Z,1013.20
2022-10-02T09:37:58.024Z,1013.19
2022-10-02T09:38:58.009Z,1013.21
2022-10-02T09:39:58.019Z,1013.20
2022-10-02T09:40:58.009Z,1013.20
2022-10-02T09:41:58.005Z,1013.19
2022-10-02T09:42:58.005Z,1013.18
2022-10-02T09:43:57.992Z,1013.25
2022-10-02T09:45:01.196Z,1013.20
2022-10-02T09:45:58.069Z,1013.18
2022-10-02T09:46:58.004Z,1013.20
2022-10-02T09:47:57.967Z,1013.19
2022-10-02T09:48:57.969Z,1013.15
2022-10-02T09:49:57.970Z,1013.20
2022-10-02T09:50:57.974Z,1013.14
2022-10-02T09:51:57.972Z,1013.19
2022-10-02T09:52:57.949Z,1013.21
2022-10-02T09:53:57.944Z,1013.26
2022-10-02T09:54:57.958Z,1013.23
2022-10-02T09:55:57.952Z,1013.19
2022-10-02T09:56:57.933Z,1013.19
2022-10-02T09:57:57.922Z,1013.24
2022-10-02T09:58:57.934Z,1013.23
2022-10-02T09:59:57.920Z,1013.22
2022-10-02T10:00:58.029Z,1013.16
2022-10-02T10:01:57.948Z,1013.20
2022-10-02T10:02:57.935Z,1013.24
2022-10-02T10:03:57.902Z,1013.29
2022-10-02T10:05:06.562Z,1013.35
2022-10-02T10:05:57.887Z,1013.34
2022-10-02T10:06:57.891Z,1013.38
2022-10-02T10:07:57.891Z,1013.37
2022-10-02T10:08:57.884Z,1013.36
2022-10-02T10:09:57.890Z,1013.37
2022-10-02T10:10:57.875Z,1013.40
2022-10-02T10:11:57.866Z,1013.36
2022-10-02T10:12:57.865Z,1013.32
2022-10-02T10:13:57.864Z,1013.34
2022-10-02T10:14:57.856Z,1013.36
2022-10-02T10:15:57.847Z,1013.34
2022-10-02T10:16:57.846Z,1013.36
2022-10-02T10:17:57.848Z,1013.37
2022-10-02T10:18:57.862Z,1013.35
2022-10-02T10:19:57.841Z,1013.33
2022-10-02T10:20:57.839Z,1013.43
2022-10-02T10:21:57.837Z,1013.38
2022-10-02T10:22:57.829Z,1013.45
2022-10-02T10:23:57.820Z,1013.48
2022-10-02T10:24:57.823Z,1013.51
2022-10-02T10:25:57.815Z,1013.51
2022-10-02T10:26:57.818Z,1013.56
2022-10-02T10:27:57.870Z,1013.48
2022-10-02T10:28:57.887Z,1013.49
2022-10-02T10:29:57.809Z,1013.52
2022-10-02T10:30:57.804Z,1013.43
2022-10-02T10:31:57.922Z,1013.41
2022-10-02T10:32:57.798Z,1013.48
2022-10-02T10:33:57.788Z,1013.45
2022-10-02T10:34:57.802Z,1013.46
2022-10-02T10:35:57.788Z,1013.47
2022-10-02T10:36:57.780Z,1013.53
2022-10-02T10:37:57.789Z,1013.49
2022-10-02T10:38:57.776Z,1013.48
2022-10-02T10:39:57.777Z,1013.52
2022-10-02T10:40:57.773Z,1013.42
2022-10-02T10:41:57.783Z,1013.47
2022-10-02T10:43:07.500Z,1013.45
2022-10-02T10:43:57.766Z,1013.43
2022-10-02T10:44:57.808Z,1013.44
2022-10-02T10:45:57.769Z,1013.48
2022-10-02T10:46:57.748Z,1013.46
2022-10-02T10:47:57.829Z,1013.46
2022-10-02T10:48:57.746Z,1013.50
2022-10-02T10:49:57.741Z,1013.55
2022-10-02T10:50:57.755Z,1013.55
2022-10-02T10:51:57.792Z,1013.53
2022-10-02T10:52:57.732Z,1013.55
2022-10-02T10:54:01.727Z,1013.60
2022-10-02T10:54:57.797Z,1013.63
2022-10-02T10:55:57.783Z,1013.69
2022-10-02T10:56:57.721Z,1013.69
2022-10-02T10:57:57.718Z,1013.75
2022-10-02T10:58:57.705Z,1013.80
2022-10-02T10:59:57.708Z,1013.84
2022-10-02T11:00:57.806Z,1013.80
2022-10-02T11:01:57.747Z,1013.80
2022-10-02T11:02:57.706Z,1013.83
2022-10-02T11:03:57.699Z,1013.81
2022-10-02T11:04:57.707Z,1013.79
2022-10-02T11:05:57.693Z,1013.81
2022-10-02T11:06:57.838Z,1013.79
2022-10-02T11:07:57.691Z,1013.85
2022-10-02T11:08:57.690Z,1013.79
2022-10-02T11:09:57.761Z,1013.77
2022-10-02T11:10:57.683Z,1013.81
2022-10-02T11:11:57.727Z,1013.79
2022-10-02T11:12:57.742Z,1013.88
2022-10-02T11:13:57.672Z,1013.84
2022-10-02T11:14:57.738Z,1013.88
2022-10-02T11:15:57.651Z,1013.88
2022-10-02T11:16:57.660Z,1013.94
2022-10-02T11:17:57.652Z,1013.90
2022-10-02T11:18:57.643Z,1013.98
2022-10-02T11:19:57.655Z,1014.01
2022-10-02T11:20:57.649Z,1014.00
2022-10-02T11:21:57.646Z,1013.98
2022-10-02T11:22:57.655Z,1014.01
2022-10-02T11:23:57.647Z,1014.03
2022-10-02T11:24:57.695Z,1013.99
2022-10-02T11:25:57.638Z,1014.01
2022-10-02T11:26:57.683Z,1014.01
2022-10-02T11:27:57.762Z,1014.01
2022-10-02T11:28:57.623Z,1014.02
2022-10-02T11:29:57.620Z,1014.04
2022-10-02T11:30:57.613Z,1014.07
2022-10-02T11:31:57.647Z,1014.12
2022-10-02T11:32:57.612Z,1014.11
2022-10-02T11:33:57.598Z,1014.11
2022-10-02T11:34:57.590Z,1014.11
2022-10-02T11:35:57.616Z,1014.09
2022-10-02T11:36:57.621Z,1014.12
2022-10-02T11:38:01.732Z,1014.15
2022-10-02T11:38:57.601Z,1014.18
2022-10-02T11:39:57.574Z,1014.19
2022-10-02T11:40:57.596Z,1014.29
2022-10-02T11:41:57.589Z,1014.26
2022-10-02T11:42:57.574Z,1014.25
2022-10-02T11:43:57.564Z,1014.28
2022-10-02T11:44:57.573Z,1014.19
2022-10-02T11:45:57.621Z,1014.20
2022-10-02T11:46:57.564Z,1014.16
2022-10-02T11:47:57.547Z,1014.15
2022-10-02T11:48:57.545Z,1014.12
2022-10-02T11:49:57.553Z,1014.10
2022-10-02T11:50:57.563Z,1014.10
2022-10-02T11:51:57.565Z,1014.06
2022-10-02T11:52:57.536Z,1014.06
2022-10-02T11:53:57.539Z,1014.04
2022-10-02T11:54:57.566Z,1014.05
2022-10-02T11:55:57.541Z,1014.01
2022-10-02T11:56:57.529Z,1013.99
2022-10-02T11:57:57.515Z,1014.04
2022-10-02T11:58:57.521Z,1014.07
2022-10-02T11:59:57.517Z,1014.03
2022-10-02T12:00:57.510Z,1014.01
2022-10-02T12:01:57.588Z,1014.01
2022-10-02T12:02:57.638Z,1014.05
2022-10-02T12:03:57.529Z,1014.03
2022-10-02T12:04:57.508Z,1014.05
2022-10-02T12:05:57.504Z,1014.08